createdAt,value
2023-04-22T00:00:48.140Z,59.43
2023-04-22T00:01:48.062Z,59.64
2023-04-22T00:02:48.235Z,59.64
2023-04-22T00:03:48.308Z,59.64
2023-04-22T00:04:48.261Z,59.53
2023-04-22T00:05:48.125Z,59.53
2023-04-22T00:06:48.038Z,59.64
2023-04-22T00:07:48.004Z,59.53
2023-04-22T00:08:47.964Z,59.64
2023-04-22T00:09:47.959Z,59.74
2023-04-22T00:10:47.936Z,59.64
2023-04-22T00:11:47.994Z,59.84
2023-04-22T00:12:47.948Z,59.64
2023-04-22T00:13:47.907Z,59.64
2023-04-22T00:14:47.887Z,59.53
2023-04-22T00:15:48.021Z,59.53
2023-04-22T00:16:47.933Z,59.64
2023-04-22T00:17:47.964Z,59.53
2023-04-22T00:18:47.923Z,59.84
2023-04-22T00:19:47.858Z,59.84
2023-04-22T00:20:47.831Z,59.84
2023-04-22T00:21:47.817Z,60.28
2023-04-22T00:22:47.798Z,60.07
2023-04-22T00:23:48.449Z,60.17
2023-04-22T00:24:47.821Z,60.38
2023-04-22T00:25:47.762Z,60.17
2023-04-22T00:26:47.808Z,60.17
2023-04-22T00:27:47.760Z,60.38
2023-04-22T00:28:47.746Z,60.07
2023-04-22T00:29:47.695Z,60.07
2023-04-22T00:30:47.699Z,59.87
2023-04-22T00:31:47.772Z,59.87
2023-04-22T00:32:47.754Z,60.07
2023-04-22T00:33:47.681Z,60.07
2023-04-22T00:34:47.661Z,59.97
2023-04-22T00:35:47.602Z,59.87
2023-04-22T00:36:47.611Z,60.17
2023-04-22T00:37:47.591Z,60.28
2023-04-22T00:38:47.582Z,60.07
2023-04-22T00:39:47.564Z,60.17
2023-04-22T00:40:47.558Z,60.17
2023-04-22T00:41:47.540Z,60.17
2023-04-22T00:42:47.547Z,60.17
2023-04-22T00:43:47.507Z,60.17
2023-04-22T00:44:47.499Z,60.07
2023-04-22T00:45:47.483Z,60.28
2023-04-22T00:46:47.492Z,60.17
2023-04-22T00:47:47.541Z,60.38
2023-04-22T00:48:47.459Z,60.48
2023-04-22T00:49:47.423Z,60.41
2023-04-22T00:50:47.460Z,60.61
2023-04-22T00:51:47.400Z,60.61
2023-04-22T00:52:47.417Z,60.51
2023-04-22T00:53:47.367Z,60.61
2023-04-22T00:54:47.371Z,60.71
2023-04-22T00:55:47.383Z,60.71
2023-04-22T00:56:47.386Z,60.61
2023-04-22T00:57:47.340Z,60.82
2023-04-22T00:58:47.293Z,60.82
2023-04-22T00:59:47.309Z,60.61
2023-04-22T01:00:47.338Z,60.82
2023-04-22T01:01:47.379Z,60.92
2023-04-22T01:02:47.400Z,61.12
2023-04-22T01:03:47.480Z,61.02
2023-04-22T01:04:47.254Z,61.12
2023-04-22T01:05:47.213Z,61.35
2023-04-22T01:06:47.213Z,61.46
2023-04-22T01:07:47.213Z,61.46
2023-04-22T01:08:47.183Z,61.46
2023-04-22T01:09:47.154Z,61.56
2023-04-22T01:10:47.160Z,61.56
2023-04-22T01:11:47.146Z,61.66
2023-04-22T01:12:47.137Z,61.56
2023-04-22T01:13:47.117Z,61.66
2023-04-22T01:14:47.102Z,61.66
2023-04-22T01:15:47.085Z,61.66
2023-04-22T01:16:47.099Z,61.66
2023-04-22T01:17:47.145Z,61.76
2023-04-22T01:18:47.060Z,61.66
2023-04-22T01:19:47.030Z,61.76
2023-04-22T01:20:47.041Z,61.87
2023-04-22T01:21:47.039Z,61.97
2023-04-22T01:22:47.017Z,62.10
2023-04-22T01:23:46.991Z,61.99
2023-04-22T01:24:46.994Z,62.10
2023-04-22T01:25:46.971Z,62.20
2023-04-22T01:26:46.951Z,62.30
2023-04-22T01:27:46.966Z,62.10
2023-04-22T01:28:46.938Z,62.20
2023-04-22T01:29:46.923Z,62.20
2023-04-22T01:30:47.306Z,62.30
2023-04-22T01:31:46.926Z,62.20
2023-04-22T01:32:46.934Z,62.30
2023-04-22T01:33:46.862Z,62.20
2023-04-22T01:34:46.952Z,62.30
2023-04-22T01:35:46.844Z,62.51
2023-04-22T01:36:47.639Z,62.51
2023-04-22T01:37:46.826Z,62.51
2023-04-22T01:38:46.796Z,62.30
2023-04-22T01:39:46.763Z,62.61
2023-04-22T01:40:46.763Z,62.71
2023-04-22T01:41:46.777Z,62.40
2023-04-22T01:42:46.756Z,62.30
2023-04-22T01:43:46.726Z,62.51
2023-04-22T01:44:46.735Z,62.40
2023-04-22T01:45:46.737Z,62.63
2023-04-22T01:46:46.694Z,62.95
2023-04-22T01:47:46.701Z,62.95
2023-04-22T01:48:47.369Z,62.63
2023-04-22T01:49:46.646Z,62.74
2023-04-22T01:50:46.660Z,62.84
2023-04-22T01:51:46.636Z,62.84
2023-04-22T01:52:46.618Z,62.95
2023-04-22T01:53:46.628Z,62.95
2023-04-22T01:54:47.133Z,62.95
2023-04-22T01:55:47.497Z,63.04
2023-04-22T01:56:46.579Z,62.95
2023-04-22T01:57:46.544Z,63.15
2023-04-22T01:58:46.561Z,62.95
2023-04-22T01:59:46.528Z,63.04
2023-04-22T02:00:46.515Z,63.04
2023-04-22T02:01:46.558Z,63.15
2023-04-22T02:02:46.606Z,62.95
2023-04-22T02:03:46.620Z,62.84
2023-04-22T02:04:46.573Z,62.95
2023-04-22T02:05:46.449Z,63.04
2023-04-22T02:06:46.441Z,62.95
2023-04-22T02:07:46.412Z,63.07
2023-04-22T02:08:46.424Z,63.18
2023-04-22T02:09:47.786Z,63.18
2023-04-22T02:10:46.384Z,63.25
2023-04-22T02:11:46.354Z,63.18
2023-04-22T02:12:46.370Z,63.28
2023-04-22T02:13:46.331Z,63.28
2023-04-22T02:14:46.335Z,63.28
2023-04-22T02:15:46.407Z,63.28
2023-04-22T02:16:46.313Z,63.59
2023-04-22T02:17:46.281Z,63.39
2023-04-22T02:18:46.292Z,63.48
2023-04-22T02:19:46.273Z,63.59
2023-04-22T02:20:46.286Z,63.79
2023-04-22T02:21:46.225Z,63.79
2023-04-22T02:22:46.243Z,63.79
2023-04-22T02:23:46.217Z,63.79
2023-04-22T02:24:46.223Z,63.79
2023-04-22T02:25:46.200Z,63.92
2023-04-22T02:26:46.185Z,64.03
2023-04-22T02:27:46.187Z,63.92
2023-04-22T02:28:46.153Z,63.92
2023-04-22T02:29:46.154Z,64.13
2023-04-22T02:30:46.118Z,64.03
2023-04-22T02:31:46.134Z,64.13
2023-04-22T02:32:46.155Z,64.03
2023-04-22T02:33:46.085Z,64.03
2023-04-22T02:34:46.064Z,64.03
2023-04-22T02:35:46.049Z,64.03
2023-04-22T02:36:46.038Z,64.13
2023-04-22T02:37:46.036Z,64.23
2023-04-22T02:38:46.025Z,64.03
2023-04-22T02:39:46.028Z,64.33
2023-04-22T02:40:46.013Z,64.43
2023-04-22T02:41:45.975Z,64.43
2023-04-22T02:42:45.950Z,64.13
2023-04-22T02:43:45.979Z,64.33
2023-04-22T02:44:45.938Z,64.43
2023-04-22T02:45:45.923Z,64.54
2023-04-22T02:46:45.944Z,64.54
2023-04-22T02:47:45.929Z,64.64
2023-04-22T02:48:45.879Z,64.74
2023-04-22T02:49:45.874Z,64.87
2023-04-22T02:50:45.860Z,64.84
2023-04-22T02:51:45.945Z,64.77
2023-04-22T02:52:45.817Z,64.98
2023-04-22T02:53:45.828Z,65.08
2023-04-22T02:54:45.822Z,65.08
2023-04-22T02:55:45.813Z,65.18
2023-04-22T02:56:45.811Z,65.39
2023-04-22T02:57:45.812Z,65.39
2023-04-22T02:58:45.772Z,65.28
2023-04-22T02:59:45.740Z,65.28
2023-04-22T03:00:45.721Z,65.49
2023-04-22T03:01:45.827Z,65.49
2023-04-22T03:02:45.869Z,65.59
2023-04-22T03:03:45.873Z,65.59
2023-04-22T03:04:45.676Z,65.59
2023-04-22T03:05:45.663Z,65.59
2023-04-22T03:06:45.637Z,65.52
2023-04-22T03:07:45.693Z,65.52
2023-04-22T03:08:45.622Z,65.52
2023-04-22T03:09:45.614Z,65.62
2023-04-22T03:10:45.661Z,65.72
2023-04-22T03:11:45.596Z,65.72
2023-04-22T03:12:45.567Z,65.83
2023-04-22T03:13:45.589Z,65.83
2023-04-22T03:14:45.551Z,66.03
2023-04-22T03:15:45.533Z,66.03
2023-04-22T03:16:45.549Z,66.13
2023-04-22T03:17:45.555Z,66.03
2023-04-22T03:18:45.481Z,66.03
2023-04-22T03:19:45.494Z,66.24
2023-04-22T03:20:45.451Z,66.24
2023-04-22T03:21:45.509Z,66.16
2023-04-22T03:22:45.442Z,66.27
2023-04-22T03:23:45.431Z,66.27
2023-04-22T03:24:45.420Z,66.27
2023-04-22T03:25:45.415Z,66.16
2023-04-22T03:26:45.391Z,66.37
2023-04-22T03:27:45.400Z,66.37
2023-04-22T03:28:45.355Z,66.47
2023-04-22T03:29:45.350Z,66.47
2023-04-22T03:30:45.340Z,66.57
2023-04-22T03:31:45.363Z,66.57
2023-04-22T03:32:45.328Z,66.57
2023-04-22T03:33:45.303Z,66.47
2023-04-22T03:34:45.277Z,66.67
2023-04-22T03:35:45.264Z,66.78
2023-04-22T03:36:45.256Z,66.88
2023-04-22T03:37:45.257Z,66.98
2023-04-22T03:38:45.218Z,66.88
2023-04-22T03:39:45.228Z,66.98
2023-04-22T03:40:45.215Z,67.11
2023-04-22T03:41:45.219Z,67.02
2023-04-22T03:42:45.186Z,67.11
2023-04-22T03:43:45.189Z,67.02
2023-04-22T03:44:45.157Z,67.11
2023-04-22T03:45:45.199Z,67.22
2023-04-22T03:46:45.152Z,67.02
2023-04-22T03:47:45.233Z,67.02
2023-04-22T03:48:45.110Z,67.22
2023-04-22T03:49:45.094Z,67.22
2023-04-22T03:50:45.092Z,67.32
2023-04-22T03:51:45.091Z,67.22
2023-04-22T03:52:45.079Z,67.11
2023-04-22T03:53:45.105Z,67.02
2023-04-22T03:54:45.028Z,67.32
2023-04-22T03:55:45.020Z,67.22
2023-04-22T03:56:45.168Z,67.32
2023-04-22T03:57:45.019Z,67.32
2023-04-22T03:58:45.023Z,67.43
2023-04-22T03:59:45.016Z,67.52
2023-04-22T04:00:44.984Z,67.52
2023-04-22T04:01:44.953Z,67.63
2023-04-22T04:02:45.159Z,67.63
2023-04-22T04:03:45.173Z,67.52
2023-04-22T04:04:45.102Z,67.63
2023-04-22T04:05:44.990Z,67.73
2023-04-22T04:06:44.901Z,67.43
2023-04-22T04:07:44.867Z,67.76
2023-04-22T04:08:44.867Z,67.52
2023-04-22T04:09:44.888Z,67.43
2023-04-22T04:10:44.975Z,67.52
2023-04-22T04:11:44.818Z,67.63
2023-04-22T04:12:44.922Z,67.73
2023-04-22T04:13:44.841Z,67.73
2023-04-22T04:14:44.797Z,67.73
2023-04-22T04:15:44.902Z,67.73
2023-04-22T04:16:45.465Z,67.63
2023-04-22T04:17:44.783Z,67.73
2023-04-22T04:18:44.736Z,67.73
2023-04-22T04:19:44.731Z,67.52
2023-04-22T04:20:44.703Z,67.63
2023-04-22T04:21:44.702Z,67.63
2023-04-22T04:22:45.429Z,67.63
2023-04-22T04:23:46.625Z,67.73
2023-04-22T04:24:44.664Z,67.63
2023-04-22T04:25:44.643Z,67.63
2023-04-22T04:26:44.606Z,67.52
2023-04-22T04:27:44.648Z,67.63
2023-04-22T04:28:44.613Z,67.63
2023-04-22T04:29:44.613Z,67.73
2023-04-22T04:30:44.607Z,67.73
2023-04-22T04:31:44.688Z,67.73
2023-04-22T04:32:44.608Z,67.83
2023-04-22T04:33:44.589Z,67.63
2023-04-22T04:34:44.577Z,67.73
2023-04-22T04:35:44.527Z,67.83
2023-04-22T04:36:44.480Z,67.63
2023-04-22T04:37:44.512Z,67.52
2023-04-22T04:38:44.508Z,67.63
2023-04-22T04:39:44.550Z,67.52
2023-04-22T04:40:44.449Z,67.32
2023-04-22T04:41:44.427Z,67.22
2023-04-22T04:42:44.409Z,67.43
2023-04-22T04:43:44.426Z,67.43
2023-04-22T04:44:44.383Z,67.22
2023-04-22T04:46:44.423Z,67.32
2023-04-22T04:47:44.476Z,67.43
2023-04-22T04:48:44.334Z,67.43
2023-04-22T04:49:44.325Z,67.11
2023-04-22T04:50:44.314Z,67.19
2023-04-22T04:51:44.305Z,67.19
2023-04-22T04:52:44.359Z,67.19
2023-04-22T04:53:44.311Z,67.19
2023-04-22T04:54:44.382Z,67.19
2023-04-22T04:55:44.232Z,67.19
2023-04-22T04:56:44.211Z,67.19
2023-04-22T04:57:44.232Z,67.19
2023-04-22T04:58:44.196Z,66.98
2023-04-22T04:59:45.167Z,66.98
2023-04-22T05:00:44.169Z,66.98
2023-04-22T05:01:44.237Z,66.78
2023-04-22T05:02:44.255Z,66.88
2023-04-22T05:03:44.505Z,66.78
2023-04-22T05:04:44.273Z,66.67
2023-04-22T05:05:44.118Z,66.78
2023-04-22T05:06:44.104Z,66.57
2023-04-22T05:07:44.091Z,66.75
2023-04-22T05:08:44.069Z,66.54
2023-04-22T05:09:44.074Z,66.54
2023-04-22T05:11:35.652Z,66.54
2023-04-22T05:12:35.658Z,66.44
2023-04-22T05:13:35.563Z,66.44
2023-04-22T05:14:37.254Z,66.44
2023-04-22T05:15:35.580Z,66.85
2023-04-22T05:16:35.576Z,66.41
2023-04-22T05:17:35.549Z,66.10
2023-04-22T05:18:35.503Z,66.10
2023-04-22T05:19:35.482Z,66.00
2023-04-22T05:20:36.254Z,65.90
2023-04-22T05:21:35.461Z,66.00
2023-04-22T05:22:35.466Z,66.10
2023-04-22T05:23:35.417Z,66.10
2023-04-22T05:24:35.433Z,65.69
2023-04-22T05:25:35.406Z,65.56
2023-04-22T05:26:35.401Z,65.46
2023-04-22T05:27:35.372Z,65.49
2023-04-22T05:28:35.389Z,65.66
2023-04-22T05:29:35.350Z,65.36
2023-04-22T05:30:35.337Z,65.46
2023-04-22T05:31:35.375Z,65.36
2023-04-22T05:32:35.378Z,65.25
2023-04-22T05:33:35.298Z,65.46
2023-04-22T05:34:35.292Z,65.46
2023-04-22T05:35:35.264Z,65.46
2023-04-22T05:36:35.269Z,65.46
2023-04-22T05:37:35.264Z,65.46
2023-04-22T05:38:35.245Z,65.15
2023-04-22T05:39:35.229Z,65.36
2023-04-22T05:40:35.216Z,65.05
2023-04-22T05:41:35.210Z,65.25
2023-04-22T05:42:35.302Z,65.25
2023-04-22T05:43:35.184Z,65.12
2023-04-22T05:44:35.179Z,65.12
2023-04-22T05:45:35.218Z,65.22
2023-04-22T05:46:35.246Z,65.12
2023-04-22T05:47:35.129Z,64.92
2023-04-22T05:48:35.115Z,65.02
2023-04-22T05:49:35.235Z,64.71
2023-04-22T05:50:35.094Z,64.61
2023-04-22T05:51:35.066Z,64.71
2023-04-22T05:52:35.067Z,64.68
2023-04-22T05:53:35.031Z,64.68
2023-04-22T05:54:35.039Z,64.58
2023-04-22T05:55:35.061Z,64.58
2023-04-22T05:56:35.018Z,64.17
2023-04-22T05:57:35.000Z,64.17
2023-04-22T05:58:35.000Z,63.96
2023-04-22T05:59:34.970Z,63.93
2023-04-22T06:00:34.960Z,64.04
2023-04-22T06:01:34.941Z,63.83
2023-04-22T06:02:35.011Z,63.63
2023-04-22T06:03:35.091Z,63.83
2023-04-22T06:04:37.445Z,63.32
2023-04-22T06:05:34.930Z,63.49
2023-04-22T06:06:34.888Z,63.29
2023-04-22T06:07:34.856Z,62.78
2023-04-22T06:08:34.849Z,62.88
2023-04-22T06:09:34.885Z,62.85
2023-04-22T06:10:34.843Z,62.76
2023-04-22T06:11:34.807Z,62.76
2023-04-22T06:12:34.809Z,62.14
2023-04-22T06:13:34.799Z,62.14
2023-04-22T06:14:34.784Z,62.14
2023-04-22T06:15:34.794Z,62.01
2023-04-22T06:16:34.799Z,61.80
2023-04-22T06:17:34.889Z,61.80
2023-04-22T06:18:35.886Z,61.71
2023-04-22T06:19:34.710Z,61.50
2023-04-22T06:20:34.697Z,61.37
2023-04-22T06:21:34.672Z,61.37
2023-04-22T06:22:34.667Z,61.07
2023-04-22T06:23:34.641Z,60.66
2023-04-22T06:24:34.640Z,60.55
2023-04-22T06:25:34.981Z,60.66
2023-04-22T06:26:34.631Z,60.53
2023-04-22T06:27:34.591Z,60.53
2023-04-22T06:28:34.585Z,60.53
2023-04-22T06:29:34.600Z,60.12
2023-04-22T06:30:34.570Z,59.61
2023-04-22T06:31:34.552Z,59.71
2023-04-22T06:32:34.572Z,59.51
2023-04-22T06:33:34.878Z,59.78
2023-04-22T06:34:34.556Z,59.89
2023-04-22T06:35:34.500Z,59.48
2023-04-22T06:36:34.502Z,59.28
2023-04-22T06:37:34.479Z,59.38
2023-04-22T06:38:34.790Z,59.25
2023-04-22T06:39:34.444Z,59.14
2023-04-22T06:40:34.465Z,58.74
2023-04-22T06:41:34.425Z,58.53
2023-04-22T06:42:34.461Z,58.30
2023-04-22T06:43:34.389Z,58.30
2023-04-22T06:44:34.393Z,58.71
2023-04-22T06:45:34.377Z,58.30
2023-04-22T06:46:34.390Z,58.40
2023-04-22T06:47:34.365Z,58.20
2023-04-22T06:48:34.332Z,58.28
2023-04-22T06:49:34.338Z,57.97
2023-04-22T06:50:34.317Z,57.87
2023-04-22T06:51:34.374Z,57.56
2023-04-22T06:52:34.277Z,57.34
2023-04-22T06:53:34.271Z,57.43
2023-04-22T06:54:34.282Z,57.64
2023-04-22T06:55:34.343Z,57.54
2023-04-22T06:56:34.253Z,57.03
2023-04-22T06:57:34.224Z,56.93
2023-04-22T06:58:34.213Z,56.90
2023-04-22T06:59:34.219Z,56.80
2023-04-22T07:00:34.195Z,56.49
2023-04-22T07:01:34.242Z,57.10
2023-04-22T07:02:34.164Z,56.49
2023-04-22T07:03:34.307Z,56.47
2023-04-22T07:04:34.233Z,56.47
2023-04-22T07:05:34.148Z,56.57
2023-04-22T07:06:34.106Z,56.98
2023-04-22T07:07:34.786Z,56.24
2023-04-22T07:08:34.112Z,55.93
2023-04-22T07:09:34.075Z,55.32
2023-04-22T07:10:34.055Z,55.83
2023-04-22T07:11:34.047Z,56.04
2023-04-22T07:12:34.026Z,55.93
2023-04-22T07:13:34.055Z,55.20
2023-04-22T07:14:34.012Z,55.40
2023-04-22T07:15:33.982Z,55.30
2023-04-22T07:16:34.054Z,55.10
2023-04-22T07:17:33.989Z,54.99
2023-04-22T07:18:34.017Z,54.69
2023-04-22T07:19:35.277Z,54.49
2023-04-22T07:20:33.913Z,54.49
2023-04-22T07:21:33.901Z,55.27
2023-04-22T07:22:33.907Z,54.66
2023-04-22T07:23:33.873Z,54.77
2023-04-22T07:24:33.883Z,54.36
2023-04-22T07:25:33.848Z,54.74
2023-04-22T07:26:33.847Z,54.53
2023-04-22T07:27:35.214Z,54.24
2023-04-22T07:28:34.355Z,54.64
2023-04-22T07:29:33.799Z,53.83
2023-04-22T07:30:33.783Z,54.24
2023-04-22T07:31:33.800Z,54.13
2023-04-22T07:32:33.821Z,53.83
2023-04-22T07:33:33.991Z,53.80
2023-04-22T07:34:34.106Z,53.80
2023-04-22T07:35:33.757Z,53.60
2023-04-22T07:36:33.715Z,53.80
2023-04-22T07:37:33.689Z,53.60
2023-04-22T07:38:34.079Z,54.11
2023-04-22T07:39:33.680Z,53.67
2023-04-22T07:40:33.666Z,53.67
2023-04-22T07:41:33.667Z,53.78
2023-04-22T07:42:33.640Z,53.47
2023-04-22T07:43:33.639Z,53.37
2023-04-22T07:44:33.697Z,52.74
2023-04-22T07:45:33.672Z,53.05
2023-04-22T07:46:33.595Z,52.84
2023-04-22T07:47:33.621Z,53.05
2023-04-22T07:48:33.563Z,52.54
2023-04-22T07:49:33.553Z,52.64
2023-04-22T07:50:33.578Z,52.64
2023-04-22T07:51:33.585Z,52.33
2023-04-22T07:52:33.542Z,52.64
2023-04-22T07:53:33.491Z,52.64
2023-04-22T07:54:33.566Z,52.81
2023-04-22T07:55:33.474Z,52.51
2023-04-22T07:56:33.476Z,52.31
2023-04-22T07:57:33.513Z,52.01
2023-04-22T07:58:34.225Z,52.08
2023-04-22T07:59:33.434Z,51.98
2023-04-22T08:00:33.465Z,51.78
2023-04-22T08:01:33.395Z,51.88
2023-04-22T08:02:33.629Z,51.57
2023-04-22T08:03:33.505Z,51.48
2023-04-22T08:04:33.480Z,51.28
2023-04-22T08:05:33.351Z,50.97
2023-04-22T08:06:33.334Z,51.48
2023-04-22T08:07:33.802Z,51.88
2023-04-22T08:08:33.314Z,51.78
2023-04-22T08:09:33.290Z,51.76
2023-04-22T08:10:33.346Z,51.65
2023-04-22T08:11:33.345Z,51.76
2023-04-22T08:12:33.280Z,51.65
2023-04-22T08:13:33.275Z,51.35
2023-04-22T08:14:33.254Z,51.23
2023-04-22T08:15:33.209Z,51.32
2023-04-22T08:16:33.197Z,50.82
2023-04-22T08:17:33.194Z,50.92
2023-04-22T08:18:33.188Z,50.62
2023-04-22T08:19:33.154Z,50.72
2023-04-22T08:20:33.150Z,50.82
2023-04-22T08:21:33.154Z,50.62
2023-04-22T08:22:33.137Z,50.82
2023-04-22T08:23:33.093Z,50.72
2023-04-22T08:24:33.104Z,50.42
2023-04-22T08:25:33.075Z,50.09
2023-04-22T08:26:33.080Z,49.99
2023-04-22T08:27:33.051Z,50.19
2023-04-22T08:28:33.045Z,50.39
2023-04-22T08:29:33.026Z,50.29
2023-04-22T08:30:33.032Z,50.49
2023-04-22T08:31:33.081Z,50.80
2023-04-22T08:32:33.293Z,50.57
2023-04-22T08:33:32.977Z,50.27
2023-04-22T08:34:32.988Z,50.27
2023-04-22T08:35:32.962Z,50.16
2023-04-22T08:36:33.467Z,50.15
2023-04-22T08:37:33.548Z,50.35
2023-04-22T08:38:32.921Z,50.24
2023-04-22T08:39:32.913Z,50.15
2023-04-22T08:40:32.896Z,49.84
2023-04-22T08:41:32.877Z,50.15
2023-04-22T08:42:32.861Z,50.02
2023-04-22T08:43:32.842Z,50.32
2023-04-22T08:44:32.845Z,49.92
2023-04-22T08:45:32.819Z,50.12
2023-04-22T08:46:32.824Z,50.02
2023-04-22T08:47:32.837Z,49.72
2023-04-22T08:48:32.798Z,50.02
2023-04-22T08:49:32.949Z,50.22
2023-04-22T08:50:32.758Z,50.22
2023-04-22T08:51:32.783Z,50.12
2023-04-22T08:52:32.743Z,50.20
2023-04-22T08:53:32.724Z,49.99
2023-04-22T08:54:32.715Z,50.10
2023-04-22T08:55:32.723Z,49.99
2023-04-22T08:56:32.700Z,49.99
2023-04-22T08:57:32.670Z,49.49
2023-04-22T08:58:34.190Z,49.90
2023-04-22T08:59:32.626Z,49.79
2023-04-22T09:00:32.640Z,49.99
2023-04-22T09:01:32.608Z,50.10
2023-04-22T09:02:32.677Z,49.79
2023-04-22T09:03:32.687Z,49.69
2023-04-22T09:04:32.694Z,50.10
2023-04-22T09:05:32.568Z,49.79
2023-04-22T09:06:32.545Z,49.67
2023-04-22T09:07:32.528Z,49.87
2023-04-22T09:08:32.543Z,50.37
2023-04-22T09:09:32.544Z,49.87
2023-04-22T09:10:34.103Z,50.07
2023-04-22T09:11:32.472Z,50.07
2023-04-22T09:12:32.491Z,50.07
2023-04-22T09:13:32.526Z,49.75
2023-04-22T09:14:32.529Z,49.55
2023-04-22T09:15:32.462Z,49.44
2023-04-22T09:16:32.459Z,49.44
2023-04-22T09:17:32.975Z,49.22
2023-04-22T09:18:32.431Z,49.73
2023-04-22T09:19:32.425Z,49.22
2023-04-22T09:20:32.416Z,48.82
2023-04-22T09:21:32.361Z,48.61
2023-04-22T09:22:32.365Z,48.41
2023-04-22T09:23:32.316Z,48.61
2023-04-22T09:24:32.369Z,48.82
2023-04-22T09:25:32.319Z,48.49
2023-04-22T09:26:32.343Z,48.09
2023-04-22T09:27:32.296Z,47.99
2023-04-22T09:28:32.272Z,48.29
2023-04-22T09:29:32.279Z,48.49
2023-04-22T09:30:32.282Z,48.39
2023-04-22T09:31:32.264Z,48.09
2023-04-22T09:32:32.271Z,47.39
2023-04-22T09:33:32.229Z,47.56
2023-04-22T09:34:32.255Z,47.66
2023-04-22T09:35:32.292Z,47.66
2023-04-22T09:36:32.273Z,47.97
2023-04-22T09:37:42.835Z,47.86
2023-04-22T09:38:33.131Z,47.54
2023-04-22T09:39:32.142Z,47.14
2023-04-22T09:40:32.150Z,47.14
2023-04-22T09:41:32.170Z,47.74
2023-04-22T09:42:32.132Z,47.14
2023-04-22T09:43:32.082Z,47.64
2023-04-22T09:44:32.075Z,47.74
2023-04-22T09:45:32.132Z,47.24
2023-04-22T09:46:32.120Z,47.04
2023-04-22T09:47:32.076Z,47.04
2023-04-22T09:48:32.017Z,46.54
2023-04-22T09:49:32.033Z,46.81
2023-04-22T09:50:31.965Z,46.31
2023-04-22T09:51:32.027Z,45.91
2023-04-22T09:52:31.981Z,46.22
2023-04-22T09:53:31.971Z,46.39
2023-04-22T09:54:31.959Z,46.49
2023-04-22T09:55:31.960Z,46.29
2023-04-22T09:56:31.930Z,46.49
2023-04-22T09:57:31.914Z,46.69
2023-04-22T09:58:31.901Z,46.81
2023-04-22T09:59:31.929Z,46.72
2023-04-22T10:00:31.862Z,47.02
2023-04-22T10:01:31.871Z,46.72
2023-04-22T10:02:31.903Z,46.41
2023-04-22T10:03:31.915Z,46.89
2023-04-22T10:04:31.989Z,46.29
2023-04-22T10:05:31.817Z,46.09
2023-04-22T10:06:31.768Z,45.89
2023-04-22T10:07:31.971Z,45.79
2023-04-22T10:08:31.753Z,45.57
2023-04-22T10:09:31.803Z,45.06
2023-04-22T10:10:31.732Z,44.96
2023-04-22T10:11:31.750Z,45.06
2023-04-22T10:12:35.477Z,45.17
2023-04-22T10:13:31.690Z,44.96
2023-04-22T10:14:31.675Z,44.87
2023-04-22T10:15:31.682Z,44.95
2023-04-22T10:16:31.656Z,44.74
2023-04-22T10:17:31.653Z,45.04
2023-04-22T10:18:31.650Z,45.04
2023-04-22T10:19:32.060Z,45.04
2023-04-22T10:20:31.624Z,45.06
2023-04-22T10:21:31.699Z,45.04
2023-04-22T10:22:31.559Z,45.65
2023-04-22T10:23:31.553Z,45.04
2023-04-22T10:24:31.587Z,45.25
2023-04-22T10:25:31.600Z,44.84
2023-04-22T10:26:31.666Z,44.64
2023-04-22T10:27:32.377Z,44.44
2023-04-22T10:28:31.472Z,44.44
2023-04-22T10:29:31.498Z,44.24
2023-04-22T10:30:31.466Z,44.34
2023-04-22T10:31:31.545Z,44.14
2023-04-22T10:32:31.546Z,44.04
2023-04-22T10:33:31.466Z,43.74
2023-04-22T10:34:31.432Z,43.94
2023-04-22T10:35:31.412Z,43.84
2023-04-22T10:36:31.404Z,44.04
2023-04-22T10:37:33.562Z,44.24
2023-04-22T10:38:31.385Z,44.54
2023-04-22T10:39:31.362Z,44.52
2023-04-22T10:40:31.371Z,43.52
2023-04-22T10:41:31.331Z,42.60
2023-04-22T10:42:31.311Z,42.30
2023-04-22T10:43:32.889Z,41.79
2023-04-22T10:44:31.398Z,42.19
2023-04-22T10:45:31.282Z,42.69
2023-04-22T10:46:31.299Z,42.69
2023-04-22T10:47:31.269Z,42.90
2023-04-22T10:48:31.234Z,43.10
2023-04-22T10:49:31.231Z,42.49
2023-04-22T10:50:31.244Z,42.19
2023-04-22T10:51:31.205Z,42.10
2023-04-22T10:52:31.186Z,41.09
2023-04-22T10:53:31.185Z,41.60
2023-04-22T10:54:32.128Z,40.69
2023-04-22T10:55:31.157Z,40.99
2023-04-22T10:56:31.153Z,40.49
2023-04-22T10:57:31.130Z,40.49
2023-04-22T10:58:31.598Z,40.79
2023-04-22T10:59:31.138Z,40.79
2023-04-22T11:00:41.810Z,40.59
2023-04-22T11:01:32.111Z,40.79
2023-04-22T11:02:31.134Z,41.09
2023-04-22T11:03:31.264Z,40.27
2023-04-22T11:04:31.102Z,40.07
2023-04-22T11:05:31.039Z,40.07
2023-04-22T11:06:30.991Z,40.07
2023-04-22T11:07:31.008Z,40.17
2023-04-22T11:08:30.980Z,40.17
2023-04-22T11:09:30.989Z,40.37
2023-04-22T11:10:30.964Z,40.37
2023-04-22T11:11:38.037Z,40.47
2023-04-22T11:12:30.930Z,40.67
2023-04-22T11:13:30.937Z,40.55
2023-04-22T11:14:30.900Z,40.35
2023-04-22T11:15:31.736Z,40.35
2023-04-22T11:16:30.890Z,40.35
2023-04-22T11:17:30.915Z,40.13
2023-04-22T11:18:30.871Z,40.03
2023-04-22T11:19:30.836Z,39.75
2023-04-22T11:20:30.860Z,39.95
2023-04-22T11:21:30.872Z,40.15
2023-04-22T11:22:30.809Z,40.05
2023-04-22T11:23:30.797Z,39.95
2023-04-22T11:24:30.769Z,39.55
2023-04-22T11:25:30.870Z,39.67
2023-04-22T11:26:30.851Z,39.97
2023-04-22T11:27:30.783Z,40.35
2023-04-22T11:28:30.780Z,39.85
2023-04-22T11:29:30.751Z,39.05
2023-04-22T11:30:30.733Z,39.15
2023-04-22T11:31:30.708Z,39.05
2023-04-22T11:32:30.703Z,39.23
2023-04-22T11:33:30.688Z,39.53
2023-04-22T11:34:30.655Z,39.33
2023-04-22T11:35:30.660Z,38.53
2023-04-22T11:36:30.630Z,38.23
2023-04-22T11:37:30.621Z,38.03
2023-04-22T11:38:30.637Z,38.43
2023-04-22T11:39:30.640Z,38.43
2023-04-22T11:40:32.595Z,38.43
2023-04-22T11:41:30.631Z,38.63
2023-04-22T11:42:30.629Z,38.43
2023-04-22T11:43:30.558Z,38.71
2023-04-22T11:44:30.517Z,38.21
2023-04-22T11:45:30.583Z,38.51
2023-04-22T11:46:30.662Z,37.71
2023-04-22T11:47:31.018Z,37.11
2023-04-22T11:48:30.468Z,36.91
2023-04-22T11:49:30.502Z,37.11
2023-04-22T11:50:30.445Z,37.92
2023-04-22T11:51:30.478Z,37.92
2023-04-22T11:52:30.413Z,37.49
2023-04-22T11:53:30.426Z,37.19
2023-04-22T11:54:30.388Z,37.19
2023-04-22T11:55:30.409Z,37.29
2023-04-22T11:56:30.392Z,36.91
2023-04-22T11:57:31.685Z,37.19
2023-04-22T11:58:30.330Z,36.99
2023-04-22T11:59:30.334Z,37.10
2023-04-22T12:00:30.400Z,36.90
2023-04-22T12:01:30.309Z,36.79
2023-04-22T12:02:30.467Z,36.40
2023-04-22T12:03:30.481Z,35.99
2023-04-22T12:04:30.247Z,36.40
2023-04-22T12:05:30.459Z,36.49
2023-04-22T12:06:30.220Z,36.90
2023-04-22T12:07:30.264Z,36.60
2023-04-22T12:08:30.201Z,36.49
2023-04-22T12:09:30.204Z,36.60
2023-04-22T12:10:30.184Z,36.99
2023-04-22T12:11:30.229Z,36.69
2023-04-22T12:12:30.173Z,36.60
2023-04-22T12:13:30.255Z,36.69
2023-04-22T12:14:30.136Z,36.19
2023-04-22T12:15:30.125Z,35.89
2023-04-22T12:16:30.198Z,35.81
2023-04-22T12:17:30.103Z,35.30
2023-04-22T12:18:30.077Z,35.99
2023-04-22T12:19:30.071Z,36.10
2023-04-22T12:20:30.286Z,36.29
2023-04-22T12:21:30.043Z,36.08
2023-04-22T12:22:30.032Z,35.18
2023-04-22T12:23:30.984Z,35.30
2023-04-22T12:24:30.445Z,35.60
2023-04-22T12:25:30.000Z,35.60
2023-04-22T12:26:29.976Z,35.80
2023-04-22T12:27:29.967Z,35.80
2023-04-22T12:28:29.969Z,35.69
2023-04-22T12:29:29.942Z,35.69
2023-04-22T12:30:29.913Z,35.80
2023-04-22T12:31:29.989Z,35.28
2023-04-22T12:32:29.915Z,35.28
2023-04-22T12:33:29.904Z,34.98
2023-04-22T12:34:29.899Z,34.98
2023-04-22T12:35:29.880Z,34.78
2023-04-22T12:36:29.857Z,34.98
2023-04-22T12:37:29.845Z,35.30
2023-04-22T12:38:29.810Z,35.30
2023-04-22T12:39:29.823Z,35.60
2023-04-22T12:40:29.799Z,35.39
2023-04-22T12:41:29.798Z,35.10
2023-04-22T12:42:29.762Z,35.39
2023-04-22T12:43:29.803Z,34.69
2023-04-22T12:44:29.748Z,35.30
2023-04-22T12:45:29.746Z,34.80
2023-04-22T12:46:29.741Z,34.69
2023-04-22T12:47:29.746Z,34.50
2023-04-22T12:48:29.690Z,34.69
2023-04-22T12:49:29.690Z,34.39
2023-04-22T12:50:29.673Z,34.69
2023-04-22T12:51:29.661Z,34.99
2023-04-22T12:52:29.649Z,35.10
2023-04-22T12:53:29.700Z,34.50
2023-04-22T12:54:29.959Z,34.38